HHN weather

Frankfurt-Hahn Airport
Frankfurt am Main, Rhineland-Palatinate, Germany

Public forecast

Using degrees Celsius for public forecast. Weather courtesy of forecast.io.

Current aviation weather report (METAR) for Frankfurt-Hahn Airport

Retrieved 2019/11/22 14:20 UTC (0 seconds ago):

EDFH 221420Z 13014KT 0150 R21/0225N FG VV/// 02/02 Q1004

Aviation forecast (TAF) for Frankfurt-Hahn Airport

Retrieved 2019/11/22 12:27 UTC (2 hours ago):

TAF EDFH 221100Z 2212/2312 12014KT 0200 FG BKN001 PROB30 TEMPO 2218/2312 12015G25KT BECMG 2305/2308 3000 BR BKN008 BECMG 2308/2312 CAVOK